Time;durP1;ratioP1;P1;durP2;ratioP2;P2;SDS_P1;SDS_P2;PMS_P1;PMS_P2;Temp;Humidity;BMP_temperature;BMP_pressure;BME280_temperature;BME280_humidity;BME280_pressure;Samples;Min_cycle;Max_cycle;Signal;HPM_P1;HPM_P2
2021/05/25 00:01:59;;;;;;;7.57;1.50;;;;;;;;;;6215829;23;20005;-83
2021/05/25 00:07:33;;;;;;;4.20;1.10;;;;;;;;;;6240792;23;20072;-83
2021/05/25 00:10:23;;;;;;;2.42;1.00;;;;;;;;;;6224822;23;20004;-83
2021/05/25 00:13:03;;;;;;;3.88;1.30;;;;;;;;;;6240243;23;19988;-83
2021/05/25 00:15:33;;;;;;;3.55;1.20;;;;;;;;;;6241377;23;20020;-83
2021/05/25 00:18:27;;;;;;;3.33;1.48;;;;;;;;;;6214899;23;20016;-83
2021/05/25 00:21:47;;;;;;;3.28;1.30;;;;;;;;;;6240866;23;20120;-83
2021/05/25 00:24:13;;;;;;;3.30;1.40;;;;;;;;;;6241435;23;20012;-83
2021/05/25 00:26:43;;;;;;;2.75;1.20;;;;;;;;;;6241495;23;20011;-83
2021/05/25 00:29:33;;;;;;;2.53;1.33;;;;;;;;;;6241077;23;20015;-82
2021/05/25 00:32:31;;;;;;;5.55;1.73;;;;;;;;;;6241039;23;20016;-82
2021/05/25 00:35:41;;;;;;;3.35;1.20;;;;;;;;;;6244978;23;20012;-83
2021/05/25 00:48:18;;;;;;;3.78;1.52;;;;;;;;;;6245795;23;20027;-83
2021/05/25 00:51:29;;;;;;;4.32;1.70;;;;;;;;;;6213789;23;20008;-83
2021/05/25 00:54:17;;;;;;;;;;;;;;;;;;6214486;23;20024;-82
2021/05/25 01:00:56;;;;;;;4.78;1.80;;;;;;;;;;6214575;23;20028;-82
2021/05/25 01:03:57;;;;;;;4.70;1.65;;;;;;;;;;6214203;23;19994;-82
2021/05/25 01:10:45;;;;;;;5.80;2.83;;;;;;;;;;6125340;23;20026;-83
2021/05/25 01:17:29;;;;;;;4.78;1.90;;;;;;;;;;6099281;23;20021;-83
2021/05/25 01:21:00;;;;;;;6.85;1.40;;;;;;;;;;6094606;23;20130;-83
2021/05/25 01:23:47;;;;;;;3.72;1.63;;;;;;;;;;6144986;23;20005;-83
2021/05/25 01:26:16;;;;;;;4.68;1.50;;;;;;;;;;6190250;23;20040;-83
2021/05/25 01:28:43;;;;;;;4.93;1.45;;;;;;;;;;6245364;23;20007;-82
2021/05/25 01:45:15;;;;;;;6.00;1.50;;;;;;;;;;6209293;22;20024;-82
2021/05/25 01:47:40;;;;;;;3.33;1.67;;;;;;;;;;6280214;22;20006;-83
2021/05/25 01:50:14;;;;;;;6.35;1.63;;;;;;;;;;6280330;22;19988;-82
2021/05/25 01:59:51;;;;;;;;;;;;;;;;;;;;;
2021/05/25 02:34:24;;;;;;;5.38;1.50;;;;;;;;;;5894468;24;20016;-81
2021/05/25 02:54:18;;;;;;;6.75;2.05;;;;;;;;;;5921377;24;20144;-81
2021/05/25 03:16:37;;;;;;;4.47;1.92;;;;;;;;;;6090779;23;20094;-81
2021/05/25 03:19:11;;;;;;;6.82;1.90;;;;;;;;;;6090916;23;20054;-82
2021/05/25 03:21:36;;;;;;;5.32;2.08;;;;;;;;;;6090323;23;20547;-82
2021/05/25 03:24:21;;;;;;;4.20;1.63;;;;;;;;;;6089640;23;20007;-82
2021/05/25 03:26:47;;;;;;;6.00;2.00;;;;;;;;;;6066129;23;20014;-82
2021/05/25 03:29:21;;;;;;;6.07;1.95;;;;;;;;;;6090307;23;20014;-82
2021/05/25 03:31:46;;;;;;;7.47;2.05;;;;;;;;;;6090315;23;20070;-82
2021/05/25 04:04:33;;;;;;;6.18;2.10;;;;;;;;;;5894207;24;20111;-82
2021/05/25 04:07:40;;;;;;;6.30;2.40;;;;;;;;;;5895840;24;20010;-82
2021/05/25 04:10:56;;;;;;;6.88;1.95;;;;;;;;;;5843276;24;20006;-82
2021/05/25 04:13:46;;;;;;;5.72;2.15;;;;;;;;;;5765452;25;20005;-82
2021/05/25 04:16:21;;;;;;;7.13;2.33;;;;;;;;;;5765158;25;20038;-82
2021/05/25 04:21:47;;;;;;;7.30;2.15;;;;;;;;;;5791509;24;20023;-82
2021/05/25 04:24:18;;;;;;;6.32;2.25;;;;;;;;;;5799456;24;20011;-82
2021/05/25 10:07:22;;;;;;;3.35;1.55;;;;;;;;;;6183799;23;20220;31
2021/05/25 11:59:14;;;;;;;3.83;1.15;;;;;;;;;;6195812;22;20035;-82
2021/05/25 12:01:45;;;;;;;2.53;1.08;;;;;;;;;;6265324;23;20018;-81
2021/05/25 12:04:11;;;;;;;;;;;;;;;;;;6265675;23;20008;-82
2021/05/25 12:06:59;;;;;;;3.20;1.05;;;;;;;;;;6265170;23;19904;-82
2021/05/25 12:09:30;;;;;;;2.13;0.80;;;;;;;;;;6265472;23;19996;-82
2021/05/25 12:12:03;;;;;;;;;;;;;;;;;;6241534;23;20004;-82
2021/05/25 12:14:38;;;;;;;2.55;1.00;;;;;;;;;;6266633;23;19911;-82
2021/05/25 12:17:05;;;;;;;3.78;1.30;;;;;;;;;;6267386;23;19996;-82
2021/05/25 12:19:38;;;;;;;3.97;0.95;;;;;;;;;;6267112;23;20023;-82
2021/05/25 12:22:06;;;;;;;2.15;0.90;;;;;;;;;;6266032;23;20064;-82
2021/05/25 15:27:40;;;;;;;2.72;0.82;;;;;;;;;;6279530;22;20029;-82
2021/05/25 15:30:08;;;;;;;1.92;0.70;;;;;;;;;;6335329;22;20015;-83
2021/05/25 15:32:34;;;;;;;1.58;0.70;;;;;;;;;;6352971;22;20131;-84
2021/05/25 15:35:00;;;;;;;1.02;0.50;;;;;;;;;;6318667;22;19999;-84
2021/05/25 15:37:25;;;;;;;2.30;0.75;;;;;;;;;;6339132;22;20435;-84
2021/05/25 15:39:51;;;;;;;2.80;0.70;;;;;;;;;;6310874;22;20424;-85
2021/05/25 15:42:16;;;;;;;1.33;0.70;;;;;;;;;;6310920;22;20002;-85
2021/05/25 15:44:42;;;;;;;2.05;0.70;;;;;;;;;;6310796;22;20051;-85
2021/05/25 15:47:08;;;;;;;1.55;0.70;;;;;;;;;;6338200;22;19999;-85
2021/05/25 15:49:34;;;;;;;3.88;0.60;;;;;;;;;;6337740;22;20073;-87
2021/05/25 15:51:59;;;;;;;1.65;0.60;;;;;;;;;;6338017;22;19995;-86
2021/05/25 15:54:26;;;;;;;2.05;0.50;;;;;;;;;;6309954;22;20069;-85
2021/05/25 15:56:52;;;;;;;3.33;0.50;;;;;;;;;;6337829;22;19995;-86
2021/05/25 15:59:18;;;;;;;0.95;0.60;;;;;;;;;;6337390;22;20026;-86
2021/05/25 16:01:43;;;;;;;6.40;5.75;;;;;;;;;;6309863;22;19999;-86
2021/05/25 16:04:09;;;;;;;2.85;2.03;;;;;;;;;;6337549;22;20069;-86
2021/05/25 16:06:35;;;;;;;10.85;8.30;;;;;;;;;;6337501;22;21058;-86
2021/05/25 16:09:02;;;;;;;3.45;3.08;;;;;;;;;;6337678;22;20006;-87
2021/05/25 16:11:28;;;;;;;2.13;0.70;;;;;;;;;;6338152;22;19999;-86
2021/05/25 16:13:54;;;;;;;0.75;0.47;;;;;;;;;;6336282;22;20367;-87
2021/05/25 16:16:19;;;;;;;1.05;0.60;;;;;;;;;;6336438;22;19999;-86
2021/05/25 16:18:45;;;;;;;9.43;8.43;;;;;;;;;;6308341;22;20027;-87
2021/05/25 16:21:11;;;;;;;0.98;0.70;;;;;;;;;;6308685;22;19995;-87
2021/05/25 16:23:37;;;;;;;1.73;0.60;;;;;;;;;;6336243;22;19995;-86
2021/05/25 16:26:04;;;;;;;1.75;0.50;;;;;;;;;;6335966;22;20006;-87
2021/05/25 16:28:32;;;;;;;2.53;0.43;;;;;;;;;;6335684;22;20074;-87
2021/05/25 16:30:57;;;;;;;2.95;0.50;;;;;;;;;;6308964;22;20002;-87
2021/05/25 16:33:23;;;;;;;0.90;0.47;;;;;;;;;;6308988;22;20045;-86
2021/05/25 16:35:49;;;;;;;0.57;0.40;;;;;;;;;;6335112;22;19999;-88
2021/05/25 16:38:15;;;;;;;1.27;0.55;;;;;;;;;;6309289;22;20075;-87
2021/05/25 16:40:40;;;;;;;1.77;0.45;;;;;;;;;;6308430;22;20001;-87
2021/05/25 16:43:06;;;;;;;1.08;0.45;;;;;;;;;;6310583;22;20073;-87
2021/05/25 16:45:32;;;;;;;1.00;0.55;;;;;;;;;;6336618;22;20002;-86
2021/05/25 16:47:57;;;;;;;1.75;0.70;;;;;;;;;;6337624;22;20026;-87
2021/05/25 16:50:23;;;;;;;1.65;0.68;;;;;;;;;;6336568;22;20020;-87
2021/05/25 16:52:49;;;;;;;1.55;0.70;;;;;;;;;;6336228;22;19999;-87
2021/05/25 16:55:16;;;;;;;1.15;0.60;;;;;;;;;;6336770;22;20063;-87
2021/05/25 16:57:42;;;;;;;0.52;0.43;;;;;;;;;;6336833;22;19999;-86
2021/05/25 17:00:27;;;;;;;0.40;0.40;;;;;;;;;;6337630;22;19999;-87
2021/05/25 17:08:26;;;;;;;3.03;2.47;;;;;;;;;;6336920;22;19999;-87
2021/05/25 17:11:14;;;;;;;0.60;0.55;;;;;;;;;;6336735;22;20010;-87
2021/05/25 17:18:52;;;;;;;1.92;0.40;;;;;;;;;;6337655;22;20008;-86
2021/05/25 17:21:21;;;;;;;0.80;0.65;;;;;;;;;;6338266;22;20073;-86
2021/05/25 17:23:46;;;;;;;0.77;0.77;;;;;;;;;;6338133;22;20003;-86
2021/05/25 17:28:56;;;;;;;2.55;0.90;;;;;;;;;;6337785;22;20110;-86
2021/05/25 17:31:21;;;;;;;0.88;0.70;;;;;;;;;;6338226;22;20026;-85
2021/05/25 17:33:47;;;;;;;9.32;2.67;;;;;;;;;;6337657;22;19999;-87
2021/05/25 17:36:12;;;;;;;6.28;1.15;;;;;;;;;;6337488;22;20421;-87
2021/05/25 17:38:38;;;;;;;1.45;0.68;;;;;;;;;;6338708;22;20075;-86
